sensor_id;sensor_type;location;lat;lon;timestamp;temperature;humidity
64652;HTU21D;51062;45.120;37.660;2023-06-10T00:01:48;20.29;59.70
64652;HTU21D;51062;45.120;37.660;2023-06-10T00:04:15;20.29;59.73
64652;HTU21D;51062;45.120;37.660;2023-06-10T00:06:45;20.30;59.75
64652;HTU21D;51062;45.120;37.660;2023-06-10T00:09:14;20.29;59.75
64652;HTU21D;51062;45.120;37.660;2023-06-10T00:11:41;20.28;59.80
64652;HTU21D;51062;45.120;37.660;2023-06-10T00:14:07;20.28;59.83
64652;HTU21D;51062;45.120;37.660;2023-06-10T00:16:33;20.26;59.92
64652;HTU21D;51062;45.120;37.660;2023-06-10T00:19:00;20.25;59.99
64652;HTU21D;51062;45.120;37.660;2023-06-10T00:21:31;20.24;60.05
64652;HTU21D;51062;45.120;37.660;2023-06-10T00:24:07;20.24;60.05
64652;HTU21D;51062;45.120;37.660;2023-06-10T00:26:40;20.25;60.08
64652;HTU21D;51062;45.120;37.660;2023-06-10T00:29:07;20.22;60.00
64652;HTU21D;51062;45.120;37.660;2023-06-10T00:31:34;20.20;60.05
64652;HTU21D;51062;45.120;37.660;2023-06-10T00:34:01;20.19;60.09
64652;HTU21D;51062;45.120;37.660;2023-06-10T00:36:28;20.18;60.15
64652;HTU21D;51062;45.120;37.660;2023-06-10T00:38:56;20.18;60.19
64652;HTU21D;51062;45.120;37.660;2023-06-10T00:41:22;20.16;60.25
64652;HTU21D;51062;45.120;37.660;2023-06-10T00:43:49;20.17;60.28
64652;HTU21D;51062;45.120;37.660;2023-06-10T00:46:16;20.17;60.31
64652;HTU21D;51062;45.120;37.660;2023-06-10T00:48:43;20.17;60.34
64652;HTU21D;51062;45.120;37.660;2023-06-10T00:51:10;20.17;60.37
64652;HTU21D;51062;45.120;37.660;2023-06-10T00:53:40;20.17;60.41
64652;HTU21D;51062;45.120;37.660;2023-06-10T00:56:07;20.17;60.44
64652;HTU21D;51062;45.120;37.660;2023-06-10T00:58:35;20.16;60.45
64652;HTU21D;51062;45.120;37.660;2023-06-10T01:01:02;20.16;60.48
64652;HTU21D;51062;45.120;37.660;2023-06-10T01:03:29;20.15;60.54
64652;HTU21D;51062;45.120;37.660;2023-06-10T01:06:14;20.15;60.62
64652;HTU21D;51062;45.120;37.660;2023-06-10T01:11:46;20.11;60.67
64652;HTU21D;51062;45.120;37.660;2023-06-10T01:14:13;20.10;60.73
64652;HTU21D;51062;45.120;37.660;2023-06-10T01:16:44;20.07;60.80
64652;HTU21D;51062;45.120;37.660;2023-06-10T01:19:11;20.03;60.86
64652;HTU21D;51062;45.120;37.660;2023-06-10T01:21:38;20.02;60.92
64652;HTU21D;51062;45.120;37.660;2023-06-10T01:24:05;20.00;61.02
64652;HTU21D;51062;45.120;37.660;2023-06-10T01:26:34;19.99;61.07
64652;HTU21D;51062;45.120;37.660;2023-06-10T01:29:11;20.00;61.15
64652;HTU21D;51062;45.120;37.660;2023-06-10T01:31:59;19.98;61.18
64652;HTU21D;51062;45.120;37.660;2023-06-10T01:34:27;19.98;61.13
64652;HTU21D;51062;45.120;37.660;2023-06-10T01:36:55;19.97;61.12
64652;HTU21D;51062;45.120;37.660;2023-06-10T01:39:24;19.98;61.14
64652;HTU21D;51062;45.120;37.660;2023-06-10T01:41:52;19.98;61.16
64652;HTU21D;51062;45.120;37.660;2023-06-10T01:44:22;19.95;61.20
64652;HTU21D;51062;45.120;37.660;2023-06-10T01:46:48;19.95;61.20
64652;HTU21D;51062;45.120;37.660;2023-06-10T01:49:14;19.94;61.27
64652;HTU21D;51062;45.120;37.660;2023-06-10T01:51:43;19.91;61.29
64652;HTU21D;51062;45.120;37.660;2023-06-10T01:54:09;19.89;61.32
64652;HTU21D;51062;45.120;37.660;2023-06-10T01:56:35;19.88;61.33
64652;HTU21D;51062;45.120;37.660;2023-06-10T01:59:01;19.86;61.38
64652;HTU21D;51062;45.120;37.660;2023-06-10T02:01:28;19.84;61.47
64652;HTU21D;51062;45.120;37.660;2023-06-10T02:03:54;19.84;61.53
64652;HTU21D;51062;45.120;37.660;2023-06-10T02:06:21;19.81;61.56
64652;HTU21D;51062;45.120;37.660;2023-06-10T02:08:47;19.81;61.57
64652;HTU21D;51062;45.120;37.660;2023-06-10T02:11:13;19.80;61.57
64652;HTU21D;51062;45.120;37.660;2023-06-10T02:13:39;19.74;61.59
64652;HTU21D;51062;45.120;37.660;2023-06-10T02:16:05;19.68;61.62
64652;HTU21D;51062;45.120;37.660;2023-06-10T02:18:33;19.61;61.73
64652;HTU21D;51062;45.120;37.660;2023-06-10T02:20:59;19.52;61.88
64652;HTU21D;51062;45.120;37.660;2023-06-10T02:23:26;19.45;62.02
64652;HTU21D;51062;45.120;37.660;2023-06-10T02:25:52;19.41;62.11
64652;HTU21D;51062;45.120;37.660;2023-06-10T02:28:18;19.39;62.16
64652;HTU21D;51062;45.120;37.660;2023-06-10T02:30:45;19.37;62.20
64652;HTU21D;51062;45.120;37.660;2023-06-10T02:33:12;19.38;62.25
64652;HTU21D;51062;45.120;37.660;2023-06-10T02:35:39;19.38;62.28
64652;HTU21D;51062;45.120;37.660;2023-06-10T02:38:06;19.36;62.33
64652;HTU21D;51062;45.120;37.660;2023-06-10T02:40:33;19.36;62.34
64652;HTU21D;51062;45.120;37.660;2023-06-10T02:42:59;19.38;62.36
64652;HTU21D;51062;45.120;37.660;2023-06-10T02:45:26;19.36;62.42
64652;HTU21D;51062;45.120;37.660;2023-06-10T02:47:53;19.37;62.42
64652;HTU21D;51062;45.120;37.660;2023-06-10T02:50:19;19.37;62.49
64652;HTU21D;51062;45.120;37.660;2023-06-10T02:52:56;19.37;62.54
64652;HTU21D;51062;45.120;37.660;2023-06-10T02:55:22;19.41;62.58
64652;HTU21D;51062;45.120;37.660;2023-06-10T02:57:54;19.42;62.57
64652;HTU21D;51062;45.120;37.660;2023-06-10T03:00:21;19.46;62.57
64652;HTU21D;51062;45.120;37.660;2023-06-10T03:02:49;19.47;62.60
64652;HTU21D;51062;45.120;37.660;2023-06-10T03:05:17;19.48;62.63
64652;HTU21D;51062;45.120;37.660;2023-06-10T03:07:47;19.50;62.67
64652;HTU21D;51062;45.120;37.660;2023-06-10T03:10:14;19.52;62.70
64652;HTU21D;51062;45.120;37.660;2023-06-10T03:12:41;19.54;62.73
64652;HTU21D;51062;45.120;37.660;2023-06-10T03:15:08;19.55;62.76
64652;HTU21D;51062;45.120;37.660;2023-06-10T03:17:34;19.55;62.76
64652;HTU21D;51062;45.120;37.660;2023-06-10T03:20:01;19.60;62.76
64652;HTU21D;51062;45.120;37.660;2023-06-10T03:22:28;19.63;62.71
64652;HTU21D;51062;45.120;37.660;2023-06-10T03:25:05;19.66;62.69
64652;HTU21D;51062;45.120;37.660;2023-06-10T03:27:34;19.70;62.66
64652;HTU21D;51062;45.120;37.660;2023-06-10T03:30:04;19.74;62.65
64652;HTU21D;51062;45.120;37.660;2023-06-10T03:32:32;19.80;62.65
64652;HTU21D;51062;45.120;37.660;2023-06-10T03:34:59;19.86;62.67
64652;HTU21D;51062;45.120;37.660;2023-06-10T03:37:29;19.96;62.64
64652;HTU21D;51062;45.120;37.660;2023-06-10T03:39:55;20.04;62.50
64652;HTU21D;51062;45.120;37.660;2023-06-10T03:42:22;20.10;62.47
64652;HTU21D;51062;45.120;37.660;2023-06-10T03:44:50;20.13;62.46
64652;HTU21D;51062;45.120;37.660;2023-06-10T03:47:16;20.15;62.50
64652;HTU21D;51062;45.120;37.660;2023-06-10T03:49:43;20.16;62.60
64652;HTU21D;51062;45.120;37.660;2023-06-10T03:52:10;20.20;62.59
64652;HTU21D;51062;45.120;37.660;2023-06-10T03:54:37;20.24;62.62
64652;HTU21D;51062;45.120;37.660;2023-06-10T03:57:03;20.25;62.70
64652;HTU21D;51062;45.120;37.660;2023-06-10T03:59:30;20.33;62.90
64652;HTU21D;51062;45.120;37.660;2023-06-10T04:01:56;20.43;62.83
64652;HTU21D;51062;45.120;37.660;2023-06-10T04:04:23;20.54;62.74
64652;HTU21D;51062;45.120;37.660;2023-06-10T04:06:49;20.62;62.66
64652;HTU21D;51062;45.120;37.660;2023-06-10T04:09:16;20.70;62.65
64652;HTU21D;51062;45.120;37.660;2023-06-10T04:11:43;20.79;62.58
64652;HTU21D;51062;45.120;37.660;2023-06-10T04:14:09;20.92;62.50
64652;HTU21D;51062;45.120;37.660;2023-06-10T04:16:36;21.03;62.44
64652;HTU21D;51062;45.120;37.660;2023-06-10T04:19:02;21.14;62.41
64652;HTU21D;51062;45.120;37.660;2023-06-10T04:21:29;21.21;62.39
64652;HTU21D;51062;45.120;37.660;2023-06-10T04:23:55;21.29;62.41
64652;HTU21D;51062;45.120;37.660;2023-06-10T04:26:21;21.36;62.32
64652;HTU21D;51062;45.120;37.660;2023-06-10T04:28:48;21.44;62.31
64652;HTU21D;51062;45.120;37.660;2023-06-10T04:31:14;21.50;62.24
64652;HTU21D;51062;45.120;37.660;2023-06-10T04:33:42;21.57;62.18
64652;HTU21D;51062;45.120;37.660;2023-06-10T04:36:08;21.62;62.19
64652;HTU21D;51062;45.120;37.660;2023-06-10T04:38:35;21.75;62.24
64652;HTU21D;51062;45.120;37.660;2023-06-10T04:41:01;21.78;62.13
64652;HTU21D;51062;45.120;37.660;2023-06-10T04:43:31;21.76;62.10
64652;HTU21D;51062;45.120;37.660;2023-06-10T04:45:59;21.74;62.10
64652;HTU21D;51062;45.120;37.660;2023-06-10T04:48:25;21.76;62.13
64652;HTU21D;51062;45.120;37.660;2023-06-10T04:50:53;21.82;62.15
64652;HTU21D;51062;45.120;37.660;2023-06-10T04:53:19;21.94;62.10
64652;HTU21D;51062;45.120;37.660;2023-06-10T04:55:46;22.05;62.09
64652;HTU21D;51062;45.120;37.660;2023-06-10T04:58:14;22.17;62.20
64652;HTU21D;51062;45.120;37.660;2023-06-10T05:00:41;22.42;62.44
64652;HTU21D;51062;45.120;37.660;2023-06-10T05:03:07;22.68;62.28
64652;HTU21D;51062;45.120;37.660;2023-06-10T05:05:33;22.85;61.95
64652;HTU21D;51062;45.120;37.660;2023-06-10T05:08:00;22.90;61.65
64652;HTU21D;51062;45.120;37.660;2023-06-10T05:10:26;22.90;61.57
64652;HTU21D;51062;45.120;37.660;2023-06-10T05:12:52;22.80;61.63
64652;HTU21D;51062;45.120;37.660;2023-06-10T05:15:18;22.75;61.74
64652;HTU21D;51062;45.120;37.660;2023-06-10T05:17:44;22.67;61.84
64652;HTU21D;51062;45.120;37.660;2023-06-10T05:20:11;22.62;61.89
64652;HTU21D;51062;45.120;37.660;2023-06-10T05:22:37;22.62;61.91
64652;HTU21D;51062;45.120;37.660;2023-06-10T05:25:03;22.61;61.85
64652;HTU21D;51062;45.120;37.660;2023-06-10T05:27:30;22.58;61.85
64652;HTU21D;51062;45.120;37.660;2023-06-10T05:29:56;22.58;61.91
64652;HTU21D;51062;45.120;37.660;2023-06-10T05:32:22;22.57;61.92
64652;HTU21D;51062;45.120;37.660;2023-06-10T05:34:49;22.55;61.97
64652;HTU21D;51062;45.120;37.660;2023-06-10T05:37:14;22.53;61.94
64652;HTU21D;51062;45.120;37.660;2023-06-10T05:39:41;22.51;61.95
64652;HTU21D;51062;45.120;37.660;2023-06-10T05:42:07;22.52;61.90
64652;HTU21D;51062;45.120;37.660;2023-06-10T05:44:34;22.54;61.93
64652;HTU21D;51062;45.120;37.660;2023-06-10T05:47:00;22.60;61.94
64652;HTU21D;51062;45.120;37.660;2023-06-10T05:49:27;22.68;62.00
64652;HTU21D;51062;45.120;37.660;2023-06-10T05:51:53;22.79;61.93
64652;HTU21D;51062;45.120;37.660;2023-06-10T05:54:19;22.91;61.83
64652;HTU21D;51062;45.120;37.660;2023-06-10T05:56:45;23.02;61.78
64652;HTU21D;51062;45.120;37.660;2023-06-10T05:59:12;23.09;61.73
64652;HTU21D;51062;45.120;37.660;2023-06-10T06:01:38;23.17;61.73
64652;HTU21D;51062;45.120;37.660;2023-06-10T06:04:05;23.26;61.73
64652;HTU21D;51062;45.120;37.660;2023-06-10T06:06:31;23.35;61.68
64652;HTU21D;51062;45.120;37.660;2023-06-10T06:08:57;23.41;61.70
64652;HTU21D;51062;45.120;37.660;2023-06-10T06:11:23;23.50;61.65
64652;HTU21D;51062;45.120;37.660;2023-06-10T06:13:49;23.56;61.66
64652;HTU21D;51062;45.120;37.660;2023-06-10T06:16:16;23.61;61.64
64652;HTU21D;51062;45.120;37.660;2023-06-10T06:18:44;23.64;61.60
64652;HTU21D;51062;45.120;37.660;2023-06-10T06:21:10;23.65;61.54
64652;HTU21D;51062;45.120;37.660;2023-06-10T06:23:36;23.68;61.50
64652;HTU21D;51062;45.120;37.660;2023-06-10T06:26:02;23.73;61.50
64652;HTU21D;51062;45.120;37.660;2023-06-10T06:28:28;23.80;61.49
64652;HTU21D;51062;45.120;37.660;2023-06-10T06:30:56;23.85;61.43
64652;HTU21D;51062;45.120;37.660;2023-06-10T06:33:22;23.88;61.46
64652;HTU21D;51062;45.120;37.660;2023-06-10T06:35:48;23.98;61.44
64652;HTU21D;51062;45.120;37.660;2023-06-10T06:38:14;24.04;61.39
64652;HTU21D;51062;45.120;37.660;2023-06-10T06:40:41;24.12;61.42
64652;HTU21D;51062;45.120;37.660;2023-06-10T06:43:07;24.19;61.32
64652;HTU21D;51062;45.120;37.660;2023-06-10T06:45:52;24.26;61.24
64652;HTU21D;51062;45.120;37.660;2023-06-10T06:48:18;24.31;61.18
64652;HTU21D;51062;45.120;37.660;2023-06-10T06:50:44;24.33;61.19
64652;HTU21D;51062;45.120;37.660;2023-06-10T06:53:10;24.40;61.26
64652;HTU21D;51062;45.120;37.660;2023-06-10T06:55:36;24.46;61.22
64652;HTU21D;51062;45.120;37.660;2023-06-10T06:58:02;24.57;61.24
64652;HTU21D;51062;45.120;37.660;2023-06-10T07:00:30;24.68;61.17
64652;HTU21D;51062;45.120;37.660;2023-06-10T07:02:56;24.73;61.05
64652;HTU21D;51062;45.120;37.660;2023-06-10T07:05:23;24.73;60.96
64652;HTU21D;51062;45.120;37.660;2023-06-10T07:07:52;24.69;60.85
64652;HTU21D;51062;45.120;37.660;2023-06-10T07:10:27;24.61;60.92
64652;HTU21D;51062;45.120;37.660;2023-06-10T07:12:54;24.55;60.89
64652;HTU21D;51062;45.120;37.660;2023-06-10T07:15:20;24.51;60.93
64652;HTU21D;51062;45.120;37.660;2023-06-10T07:17:46;24.50;61.02
64652;HTU21D;51062;45.120;37.660;2023-06-10T07:20:13;24.50;61.04
64652;HTU21D;51062;45.120;37.660;2023-06-10T07:22:42;24.50;61.06
64652;HTU21D;51062;45.120;37.660;2023-06-10T07:25:09;24.53;61.09
64652;HTU21D;51062;45.120;37.660;2023-06-10T07:27:35;24.55;61.13
64652;HTU21D;51062;45.120;37.660;2023-06-10T07:30:04;24.58;61.15
64652;HTU21D;51062;45.120;37.660;2023-06-10T07:32:31;24.62;61.14
64652;HTU21D;51062;45.120;37.660;2023-06-10T07:34:57;24.62;61.20
64652;HTU21D;51062;45.120;37.660;2023-06-10T07:37:24;24.64;61.18
64652;HTU21D;51062;45.120;37.660;2023-06-10T07:39:50;24.63;61.21
64652;HTU21D;51062;45.120;37.660;2023-06-10T07:42:16;24.69;61.21
64652;HTU21D;51062;45.120;37.660;2023-06-10T07:44:42;24.74;61.22
64652;HTU21D;51062;45.120;37.660;2023-06-10T07:47:09;24.80;61.28
64652;HTU21D;51062;45.120;37.660;2023-06-10T07:49:35;24.89;61.20
64652;HTU21D;51062;45.120;37.660;2023-06-10T07:52:01;24.93;61.09
64652;HTU21D;51062;45.120;37.660;2023-06-10T07:54:27;24.94;61.09
64652;HTU21D;51062;45.120;37.660;2023-06-10T07:56:53;24.94;61.01
64652;HTU21D;51062;45.120;37.660;2023-06-10T07:59:21;24.95;60.98
64652;HTU21D;51062;45.120;37.660;2023-06-10T08:01:47;24.98;60.99
64652;HTU21D;51062;45.120;37.660;2023-06-10T08:04:13;25.02;60.99
64652;HTU21D;51062;45.120;37.660;2023-06-10T08:06:39;25.08;61.03
64652;HTU21D;51062;45.120;37.660;2023-06-10T08:09:05;25.19;61.00
64652;HTU21D;51062;45.120;37.660;2023-06-10T08:11:32;25.28;60.93
64652;HTU21D;51062;45.120;37.660;2023-06-10T08:13:57;25.32;60.94
64652;HTU21D;51062;45.120;37.660;2023-06-10T08:16:24;25.36;60.90
64652;HTU21D;51062;45.120;37.660;2023-06-10T08:18:50;25.39;60.84
64652;HTU21D;51062;45.120;37.660;2023-06-10T08:21:16;25.38;60.87
64652;HTU21D;51062;45.120;37.660;2023-06-10T08:23:42;25.42;60.89
64652;HTU21D;51062;45.120;37.660;2023-06-10T08:26:09;25.51;60.86
64652;HTU21D;51062;45.120;37.660;2023-06-10T08:28:35;25.64;60.72
64652;HTU21D;51062;45.120;37.660;2023-06-10T08:31:02;25.71;60.63
64652;HTU21D;51062;45.120;37.660;2023-06-10T08:33:28;25.77;60.62
64652;HTU21D;51062;45.120;37.660;2023-06-10T08:35:54;25.79;60.54
64652;HTU21D;51062;45.120;37.660;2023-06-10T08:38:20;25.79;60.54
64652;HTU21D;51062;45.120;37.660;2023-06-10T08:40:46;25.78;60.49
64652;HTU21D;51062;45.120;37.660;2023-06-10T08:43:31;25.76;60.51
64652;HTU21D;51062;45.120;37.660;2023-06-10T08:46:00;25.79;60.57
64652;HTU21D;51062;45.120;37.660;2023-06-10T08:48:30;25.90;60.60
64652;HTU21D;51062;45.120;37.660;2023-06-10T08:50:59;26.02;60.48
64652;HTU21D;51062;45.120;37.660;2023-06-10T08:53:26;26.08;60.38
64652;HTU21D;51062;45.120;37.660;2023-06-10T08:55:56;26.07;60.34
64652;HTU21D;51062;45.120;37.660;2023-06-10T08:58:25;26.10;60.36
64652;HTU21D;51062;45.120;37.660;2023-06-10T09:00:51;26.12;60.38
64652;HTU21D;51062;45.120;37.660;2023-06-10T09:03:18;26.18;60.35
64652;HTU21D;51062;45.120;37.660;2023-06-10T09:05:44;26.20;60.25
64652;HTU21D;51062;45.120;37.660;2023-06-10T09:08:11;26.23;60.25
64652;HTU21D;51062;45.120;37.660;2023-06-10T09:10:37;26.24;60.22
64652;HTU21D;51062;45.120;37.660;2023-06-10T09:13:04;26.31;60.18
64652;HTU21D;51062;45.120;37.660;2023-06-10T09:15:30;26.37;60.12
64652;HTU21D;51062;45.120;37.660;2023-06-10T09:17:56;26.42;59.99
64652;HTU21D;51062;45.120;37.660;2023-06-10T09:20:23;26.47;59.96
64652;HTU21D;51062;45.120;37.660;2023-06-10T09:22:49;26.53;59.90
64652;HTU21D;51062;45.120;37.660;2023-06-10T09:25:15;26.60;59.92
64652;HTU21D;51062;45.120;37.660;2023-06-10T09:27:53;26.60;59.74
64652;HTU21D;51062;45.120;37.660;2023-06-10T09:30:40;26.55;59.68
64652;HTU21D;51062;45.120;37.660;2023-06-10T09:33:12;26.47;59.68
64652;HTU21D;51062;45.120;37.660;2023-06-10T09:35:45;26.35;59.75
64652;HTU21D;51062;45.120;37.660;2023-06-10T09:38:14;26.23;59.79
64652;HTU21D;51062;45.120;37.660;2023-06-10T09:40:54;26.10;59.90
64652;HTU21D;51062;45.120;37.660;2023-06-10T09:43:20;25.99;59.96
64652;HTU21D;51062;45.120;37.660;2023-06-10T09:45:56;25.90;60.06
64652;HTU21D;51062;45.120;37.660;2023-06-10T09:48:23;25.84;60.06
64652;HTU21D;51062;45.120;37.660;2023-06-10T09:50:49;25.76;60.09
64652;HTU21D;51062;45.120;37.660;2023-06-10T09:53:17;25.69;60.08
64652;HTU21D;51062;45.120;37.660;2023-06-10T09:55:44;25.58;60.10
64652;HTU21D;51062;45.120;37.660;2023-06-10T09:58:10;25.45;60.20
64652;HTU21D;51062;45.120;37.660;2023-06-10T10:00:36;25.31;60.32
64652;HTU21D;51062;45.120;37.660;2023-06-10T10:03:02;25.19;60.41
64652;HTU21D;51062;45.120;37.660;2023-06-10T10:05:29;25.05;60.50
64652;HTU21D;51062;45.120;37.660;2023-06-10T10:07:55;24.87;60.61
64652;HTU21D;51062;45.120;37.660;2023-06-10T10:10:22;24.58;60.41
64652;HTU21D;51062;45.120;37.660;2023-06-10T10:12:52;24.14;60.75
64652;HTU21D;51062;45.120;37.660;2023-06-10T10:15:21;23.72;61.31
64652;HTU21D;51062;45.120;37.660;2023-06-10T10:17:53;23.35;61.89
64652;HTU21D;51062;45.120;37.660;2023-06-10T10:20:26;23.00;62.28
64652;HTU21D;51062;45.120;37.660;2023-06-10T10:22:56;22.64;62.78
64652;HTU21D;51062;45.120;37.660;2023-06-10T10:25:26;22.34;63.17
64652;HTU21D;51062;45.120;37.660;2023-06-10T10:28:11;22.01;63.61
64652;HTU21D;51062;45.120;37.660;2023-06-10T10:30:45;21.80;63.90
64652;HTU21D;51062;45.120;37.660;2023-06-10T10:33:38;21.66;64.09
64652;HTU21D;51062;45.120;37.660;2023-06-10T10:36:05;21.58;64.09
64652;HTU21D;51062;45.120;37.660;2023-06-10T10:38:33;21.53;64.13
64652;HTU21D;51062;45.120;37.660;2023-06-10T10:41:00;21.51;64.08
64652;HTU21D;51062;45.120;37.660;2023-06-10T10:43:28;21.44;64.04
64652;HTU21D;51062;45.120;37.660;2023-06-10T10:46:11;21.49;64.24
64652;HTU21D;51062;45.120;37.660;2023-06-10T10:48:39;21.60;64.11
64652;HTU21D;51062;45.120;37.660;2023-06-10T10:51:07;21.69;64.01
64652;HTU21D;51062;45.120;37.660;2023-06-10T10:53:34;21.79;63.90
64652;HTU21D;51062;45.120;37.660;2023-06-10T10:56:22;21.85;63.89
64652;HTU21D;51062;45.120;37.660;2023-06-10T10:59:06;21.95;63.95
64652;HTU21D;51062;45.120;37.660;2023-06-10T11:01:42;22.06;63.98
64652;HTU21D;51062;45.120;37.660;2023-06-10T11:04:12;22.17;63.91
64652;HTU21D;51062;45.120;37.660;2023-06-10T11:06:38;22.29;63.85
64652;HTU21D;51062;45.120;37.660;2023-06-10T11:09:28;22.43;63.92
64652;HTU21D;51062;45.120;37.660;2023-06-10T11:11:57;22.49;63.79
64652;HTU21D;51062;45.120;37.660;2023-06-10T11:14:28;22.48;63.72
64652;HTU21D;51062;45.120;37.660;2023-06-10T11:16:58;22.42;63.76
64652;HTU21D;51062;45.120;37.660;2023-06-10T11:19:32;22.32;63.92
64652;HTU21D;51062;45.120;37.660;2023-06-10T11:22:00;22.24;64.08
64652;HTU21D;51062;45.120;37.660;2023-06-10T11:24:26;22.17;64.24
64652;HTU21D;51062;45.120;37.660;2023-06-10T11:26:52;22.13;64.36
64652;HTU21D;51062;45.120;37.660;2023-06-10T11:29:18;22.09;64.37
64652;HTU21D;51062;45.120;37.660;2023-06-10T11:31:50;21.99;64.73
64652;HTU21D;51062;45.120;37.660;2023-06-10T11:34:24;21.88;64.92
64652;HTU21D;51062;45.120;37.660;2023-06-10T11:36:53;21.81;64.98
64652;HTU21D;51062;45.120;37.660;2023-06-10T11:39:20;21.78;65.02
64652;HTU21D;51062;45.120;37.660;2023-06-10T11:41:50;21.75;65.13
64652;HTU21D;51062;45.120;37.660;2023-06-10T11:44:17;21.73;65.15
64652;HTU21D;51062;45.120;37.660;2023-06-10T11:46:44;21.70;65.22
64652;HTU21D;51062;45.120;37.660;2023-06-10T11:49:11;21.69;65.29
64652;HTU21D;51062;45.120;37.660;2023-06-10T11:51:40;21.65;65.41
64652;HTU21D;51062;45.120;37.660;2023-06-10T11:54:09;21.62;65.56
64652;HTU21D;51062;45.120;37.660;2023-06-10T11:56:35;21.60;65.64
64652;HTU21D;51062;45.120;37.660;2023-06-10T11:59:07;21.59;65.74
64652;HTU21D;51062;45.120;37.660;2023-06-10T12:01:35;21.59;65.75
64652;HTU21D;51062;45.120;37.660;2023-06-10T12:04:07;21.58;65.82
64652;HTU21D;51062;45.120;37.660;2023-06-10T12:06:41;21.57;65.89
64652;HTU21D;51062;45.120;37.660;2023-06-10T12:09:24;21.55;65.95
64652;HTU21D;51062;45.120;37.660;2023-06-10T12:12:04;21.50;66.04
64652;HTU21D;51062;45.120;37.660;2023-06-10T12:14:58;21.44;66.12
64652;HTU21D;51062;45.120;37.660;2023-06-10T12:19:57;21.33;66.38
64652;HTU21D;51062;45.120;37.660;2023-06-10T12:22:23;21.33;66.48
64652;HTU21D;51062;45.120;37.660;2023-06-10T12:24:58;21.32;66.59
64652;HTU21D;51062;45.120;37.660;2023-06-10T12:27:29;21.30;66.66
64652;HTU21D;51062;45.120;37.660;2023-06-10T12:29:56;21.27;66.79
64652;HTU21D;51062;45.120;37.660;2023-06-10T12:32:45;21.20;66.94
64652;HTU21D;51062;45.120;37.660;2023-06-10T12:35:14;21.18;67.00
64652;HTU21D;51062;45.120;37.660;2023-06-10T12:37:41;21.16;67.02
64652;HTU21D;51062;45.120;37.660;2023-06-10T12:40:07;21.10;67.11
64652;HTU21D;51062;45.120;37.660;2023-06-10T12:42:37;21.08;67.23
64652;HTU21D;51062;45.120;37.660;2023-06-10T12:45:04;21.08;67.28
64652;HTU21D;51062;45.120;37.660;2023-06-10T12:47:37;21.06;67.29
64652;HTU21D;51062;45.120;37.660;2023-06-10T12:50:07;21.03;67.27
64652;HTU21D;51062;45.120;37.660;2023-06-10T12:52:33;20.96;67.37
64652;HTU21D;51062;45.120;37.660;2023-06-10T12:55:00;20.91;67.55
64652;HTU21D;51062;45.120;37.660;2023-06-10T12:57:27;20.88;67.66
64652;HTU21D;51062;45.120;37.660;2023-06-10T12:59:53;20.85;67.75
64652;HTU21D;51062;45.120;37.660;2023-06-10T13:02:20;20.80;67.84
64652;HTU21D;51062;45.120;37.660;2023-06-10T13:04:46;20.79;67.91
64652;HTU21D;51062;45.120;37.660;2023-06-10T13:07:13;20.79;67.95
64652;HTU21D;51062;45.120;37.660;2023-06-10T13:09:39;20.78;67.94
64652;HTU21D;51062;45.120;37.660;2023-06-10T13:12:06;20.79;67.93
64652;HTU21D;51062;45.120;37.660;2023-06-10T13:14:32;20.76;67.97
64652;HTU21D;51062;45.120;37.660;2023-06-10T13:16:58;20.74;68.10
64652;HTU21D;51062;45.120;37.660;2023-06-10T13:19:24;20.72;68.26
64652;HTU21D;51062;45.120;37.660;2023-06-10T13:21:51;20.72;68.34
64652;HTU21D;51062;45.120;37.660;2023-06-10T13:24:18;20.73;68.42
64652;HTU21D;51062;45.120;37.660;2023-06-10T13:26:44;20.76;68.42
64652;HTU21D;51062;45.120;37.660;2023-06-10T13:29:10;20.76;68.39
64652;HTU21D;51062;45.120;37.660;2023-06-10T13:31:40;20.76;68.42
64652;HTU21D;51062;45.120;37.660;2023-06-10T13:34:07;20.75;68.43
64652;HTU21D;51062;45.120;37.660;2023-06-10T13:36:33;20.77;68.41
64652;HTU21D;51062;45.120;37.660;2023-06-10T13:38:59;20.78;68.34
64652;HTU21D;51062;45.120;37.660;2023-06-10T13:41:25;20.77;68.36
64652;HTU21D;51062;45.120;37.660;2023-06-10T13:43:54;20.76;68.36
64652;HTU21D;51062;45.120;37.660;2023-06-10T13:46:21;20.74;68.39
64652;HTU21D;51062;45.120;37.660;2023-06-10T13:48:48;20.73;68.42
64652;HTU21D;51062;45.120;37.660;2023-06-10T13:51:14;20.75;68.42
64652;HTU21D;51062;45.120;37.660;2023-06-10T13:53:40;20.75;68.36
64652;HTU21D;51062;45.120;37.660;2023-06-10T13:56:06;20.76;68.39
64652;HTU21D;51062;45.120;37.660;2023-06-10T13:58:32;20.77;68.42
64652;HTU21D;51062;45.120;37.660;2023-06-10T14:01:05;20.78;68.41
64652;HTU21D;51062;45.120;37.660;2023-06-10T14:03:31;20.81;68.43
64652;HTU21D;51062;45.120;37.660;2023-06-10T14:05:57;20.83;68.46
64652;HTU21D;51062;45.120;37.660;2023-06-10T14:08:23;20.83;68.51
64652;HTU21D;51062;45.120;37.660;2023-06-10T14:10:50;20.81;68.58
64652;HTU21D;51062;45.120;37.660;2023-06-10T14:13:17;20.80;68.62
64652;HTU21D;51062;45.120;37.660;2023-06-10T14:15:43;20.79;68.68
64652;HTU21D;51062;45.120;37.660;2023-06-10T14:18:09;20.76;68.75
64652;HTU21D;51062;45.120;37.660;2023-06-10T14:20:36;20.77;68.81
64652;HTU21D;51062;45.120;37.660;2023-06-10T14:23:02;20.77;68.86
64652;HTU21D;51062;45.120;37.660;2023-06-10T14:25:28;20.78;68.85
64652;HTU21D;51062;45.120;37.660;2023-06-10T14:27:54;20.80;68.84
64652;HTU21D;51062;45.120;37.660;2023-06-10T14:30:20;20.81;68.90
64652;HTU21D;51062;45.120;37.660;2023-06-10T14:32:46;20.86;68.90
64652;HTU21D;51062;45.120;37.660;2023-06-10T14:35:12;20.90;68.89
64652;HTU21D;51062;45.120;37.660;2023-06-10T14:37:38;20.92;68.87
64652;HTU21D;51062;45.120;37.660;2023-06-10T14:40:05;20.95;68.87
64652;HTU21D;51062;45.120;37.660;2023-06-10T14:42:31;21.01;68.83
64652;HTU21D;51062;45.120;37.660;2023-06-10T14:44:58;21.06;68.79
64652;HTU21D;51062;45.120;37.660;2023-06-10T14:47:24;21.09;68.81
64652;HTU21D;51062;45.120;37.660;2023-06-10T14:49:51;21.10;68.85
64652;HTU21D;51062;45.120;37.660;2023-06-10T14:52:17;21.15;68.91
64652;HTU21D;51062;45.120;37.660;2023-06-10T14:54:43;21.21;68.93
64652;HTU21D;51062;45.120;37.660;2023-06-10T14:57:09;21.25;68.91
64652;HTU21D;51062;45.120;37.660;2023-06-10T14:59:36;21.32;68.88
64652;HTU21D;51062;45.120;37.660;2023-06-10T15:02:02;21.36;68.86
64652;HTU21D;51062;45.120;37.660;2023-06-10T15:04:28;21.40;68.84
64652;HTU21D;51062;45.120;37.660;2023-06-10T15:06:54;21.50;68.84
64652;HTU21D;51062;45.120;37.660;2023-06-10T15:09:20;21.55;68.83
64652;HTU21D;51062;45.120;37.660;2023-06-10T15:11:47;21.60;68.89
64652;HTU21D;51062;45.120;37.660;2023-06-10T15:14:13;21.62;68.95